Time;durP1;ratioP1;P1;durP2;ratioP2;P2;SDS_P1;SDS_P2;PMS_P1;PMS_P2;Temp;Humidity;BMP_temperature;BMP_pressure;BME280_temperature;BME280_humidity;BME280_pressure;Samples;Min_cycle;Max_cycle;Signal;HPM_P1;HPM_P2
2022/10/18 00:00:32;;;;;;;65.67;37.90;;;14.50;99.90;;;;;;5050954;28;20120;-56
2022/10/18 00:02:57;;;;;;;63.80;39.17;;;14.50;99.90;;;;;;5050541;28;20267;-57
2022/10/18 00:05:23;;;;;;;104.82;42.83;;;14.50;99.90;;;;;;5051831;28;20561;-56
2022/10/18 00:07:48;;;;;;;84.53;44.10;;;14.50;99.90;;;;;;5050193;28;20510;-57
2022/10/18 00:10:14;;;;;;;389.88;76.40;;;14.50;99.90;;;;;;5050218;28;20402;-57
2022/10/18 00:12:39;;;;;;;237.45;56.58;;;14.60;99.90;;;;;;5050681;28;20056;-57
2022/10/18 00:15:06;;;;;;;151.70;49.75;;;14.60;99.90;;;;;;5051271;28;20047;-57
2022/10/18 00:17:37;;;;;;;315.55;55.90;;;14.60;99.90;;;;;;5064168;28;20024;-57
2022/10/18 00:20:04;;;;;;;138.55;46.08;;;14.60;99.90;;;;;;5070163;28;20119;-58
2022/10/18 00:22:30;;;;;;;165.60;52.15;;;14.60;99.90;;;;;;5059627;28;20033;-56
2022/10/18 00:24:55;;;;;;;73.03;38.60;;;14.60;99.90;;;;;;5052797;28;20039;-56
2022/10/18 00:27:21;;;;;;;249.05;42.70;;;14.60;99.90;;;;;;5056131;28;20158;-58
2022/10/18 00:29:46;;;;;;;90.95;38.63;;;14.60;99.90;;;;;;5062344;28;20090;-56
2022/10/18 00:32:12;;;;;;;179.20;41.85;;;14.60;99.90;;;;;;5056265;28;20109;-57
2022/10/18 00:34:39;;;;;;;321.00;40.70;;;14.60;99.90;;;;;;5061129;28;20041;-58
2022/10/18 00:37:05;;;;;;;414.02;47.47;;;14.50;99.90;;;;;;5060976;28;20041;-58
2022/10/18 00:39:31;;;;;;;;;;;14.50;99.90;;;;;;5051901;28;20040;-57
2022/10/18 00:41:56;;;;;;;260.90;41.15;;;14.40;99.90;;;;;;5051119;28;19924;-57
2022/10/18 00:44:24;;;;;;;199.23;36.05;;;14.40;99.90;;;;;;5069859;28;20040;-57
2022/10/18 00:46:51;;;;;;;251.63;33.72;;;14.40;99.90;;;;;;5066824;28;20044;-57
2022/10/18 00:49:27;;;;;;;499.73;50.05;;;14.40;99.90;;;;;;5054775;28;20051;-56
2022/10/18 00:52:06;;;;;;;143.88;32.38;;;14.40;99.90;;;;;;5067964;28;20420;-58
2022/10/18 00:54:37;;;;;;;70.10;30.85;;;14.30;99.90;;;;;;5048932;28;20060;-57
2022/10/18 00:57:04;;;;;;;64.63;31.88;;;14.30;99.90;;;;;;5068981;28;20037;-56
2022/10/18 00:59:30;;;;;;;36.55;28.45;;;14.30;99.90;;;;;;5051086;28;20317;-57
2022/10/18 01:01:56;;;;;;;40.20;29.90;;;14.30;99.90;;;;;;5049944;28;20437;-57
2022/10/18 01:04:22;;;;;;;40.23;29.63;;;14.30;99.90;;;;;;5067602;28;20044;-57
2022/10/18 01:07:00;;;;;;;40.20;30.13;;;14.30;99.90;;;;;;5069338;28;20306;-57
2022/10/18 01:09:43;;;;;;;44.08;31.15;;;14.30;99.90;;;;;;5057601;28;20486;-58
2022/10/18 01:12:39;;;;;;;51.30;30.15;;;14.30;99.90;;;;;;5069486;28;20040;-58
2022/10/18 01:15:11;;;;;;;91.07;27.35;;;14.30;99.90;;;;;;5049563;28;20037;-57
2022/10/18 01:17:54;;;;;;;34.90;24.50;;;14.20;99.90;;;;;;5052041;28;20033;-58
2022/10/18 01:20:37;;;;;;;31.85;24.80;;;14.20;99.90;;;;;;5069932;28;20050;-56
2022/10/18 01:23:09;;;;;;;30.23;22.70;;;14.20;99.90;;;;;;5067668;28;20043;-57
2022/10/18 01:25:50;;;;;;;28.45;23.45;;;14.20;99.90;;;;;;5054337;28;20048;-56
2022/10/18 01:28:40;;;;;;;29.42;24.80;;;14.20;99.90;;;;;;5067374;28;20033;-56
2022/10/18 01:31:20;;;;;;;32.65;21.60;;;14.20;99.90;;;;;;5054629;28;20124;-57
2022/10/18 01:34:00;;;;;;;26.50;21.45;;;14.10;99.90;;;;;;5063031;28;20040;-58
2022/10/18 01:36:36;;;;;;;22.67;18.40;;;14.10;99.90;;;;;;5072895;28;20043;-58
2022/10/18 01:39:07;;;;;;;21.02;18.67;;;14.10;99.90;;;;;;5069780;28;20036;-57
2022/10/18 01:41:36;;;;;;;24.75;20.10;;;14.00;99.90;;;;;;5056646;28;20037;-58
2022/10/18 01:44:05;;;;;;;19.05;15.65;;;14.10;99.90;;;;;;5064111;28;20072;-57
2022/10/18 01:46:32;;;;;;;31.58;24.65;;;14.00;99.90;;;;;;5053744;28;20044;-58
2022/10/18 01:48:59;;;;;;;41.65;26.23;;;14.00;99.90;;;;;;5053237;28;20498;-57
2022/10/18 01:51:29;;;;;;;36.20;25.73;;;14.00;99.90;;;;;;5053434;28;20067;-58
2022/10/18 01:53:55;;;;;;;234.07;37.53;;;14.00;99.90;;;;;;5053237;28;20037;-57
2022/10/18 01:56:58;;;;;;;62.63;29.10;;;14.00;99.90;;;;;;5053880;28;20508;-57
2022/10/18 01:59:43;;;;;;;48.83;31.15;;;14.00;99.90;;;;;;5066428;28;20033;-54
2022/10/18 02:02:17;;;;;;;105.28;34.53;;;14.00;99.90;;;;;;5053148;28;20466;-58
2022/10/18 02:04:57;;;;;;;64.63;27.85;;;14.00;99.90;;;;;;5052545;28;20112;-57
2022/10/18 02:07:46;;;;;;;787.25;75.55;;;14.00;99.90;;;;;;5054384;28;20029;-57
2022/10/18 02:10:21;;;;;;;177.40;33.38;;;14.00;99.90;;;;;;5052817;28;20033;-56
2022/10/18 02:12:48;;;;;;;73.93;29.25;;;14.00;99.90;;;;;;5052745;28;20116;-58
2022/10/18 02:15:20;;;;;;;109.95;28.00;;;14.00;99.90;;;;;;5053434;28;20040;-57
2022/10/18 02:17:46;;;;;;;407.45;45.05;;;13.90;99.90;;;;;;5054448;28;20028;-58
2022/10/18 02:20:15;;;;;;;515.45;58.90;;;14.00;99.90;;;;;;5062562;28;20117;-57
2022/10/18 02:22:44;;;;;;;268.42;41.35;;;14.00;99.90;;;;;;5071655;28;20113;-58
2022/10/18 02:25:15;;;;;;;510.48;65.05;;;14.10;99.90;;;;;;5053660;28;20041;-56
2022/10/18 02:27:41;;;;;;;280.90;40.92;;;14.10;99.90;;;;;;5053155;28;20037;-57
2022/10/18 02:30:08;;;;;;;78.10;34.13;;;14.10;99.90;;;;;;5059047;28;20059;-57
2022/10/18 02:32:39;;;;;;;95.80;35.65;;;14.10;99.90;;;;;;5051702;28;20041;-57
2022/10/18 02:35:24;;;;;;;201.40;38.72;;;14.10;99.90;;;;;;5063002;28;20045;-56
2022/10/18 02:37:51;;;;;;;344.55;55.33;;;14.10;99.90;;;;;;5066846;28;20286;-57
2022/10/18 02:40:17;;;;;;;79.30;34.10;;;14.20;99.90;;;;;;5060172;28;20041;-56
2022/10/18 02:42:52;;;;;;;120.05;36.97;;;14.10;99.90;;;;;;5069314;28;20600;-57
2022/10/18 02:45:17;;;;;;;109.63;34.00;;;14.10;99.90;;;;;;5060086;28;20032;-57
2022/10/18 02:47:43;;;;;;;70.80;34.05;;;14.20;99.90;;;;;;5059622;28;20085;-58
2022/10/18 02:50:09;;;;;;;89.45;30.33;;;14.10;99.90;;;;;;5061252;28;20089;-58
2022/10/18 02:52:34;;;;;;;96.00;36.00;;;14.20;99.90;;;;;;5066217;28;20047;-57
2022/10/18 02:55:00;;;;;;;109.15;33.00;;;14.20;99.90;;;;;;5061047;28;20524;-56
2022/10/18 02:57:26;;;;;;;60.03;33.95;;;14.20;99.90;;;;;;5053503;28;20033;-57
2022/10/18 02:59:52;;;;;;;65.20;32.15;;;14.20;99.90;;;;;;5056138;28;20115;-54
2022/10/18 03:02:17;;;;;;;73.40;33.20;;;14.20;99.90;;;;;;5057780;28;20045;-56
2022/10/18 03:04:43;;;;;;;94.05;32.33;;;14.10;99.90;;;;;;5051669;28;20036;-55
2022/10/18 03:07:09;;;;;;;71.18;32.70;;;14.20;99.90;;;;;;5058739;28;20033;-59
2022/10/18 03:09:34;;;;;;;45.60;29.48;;;14.10;99.90;;;;;;5052163;28;20064;-57
2022/10/18 03:12:00;;;;;;;67.05;30.55;;;14.20;99.90;;;;;;5062367;28;20044;-57
2022/10/18 03:14:25;;;;;;;41.22;27.77;;;14.10;99.90;;;;;;5071741;28;20133;-58
2022/10/18 03:16:51;;;;;;;78.72;29.05;;;14.10;99.90;;;;;;5064711;28;20041;-58
2022/10/18 03:19:16;;;;;;;39.70;27.45;;;14.10;99.90;;;;;;5051693;28;20033;-57
2022/10/18 03:21:42;;;;;;;38.43;26.17;;;14.10;99.90;;;;;;5057426;28;20047;-58
2022/10/18 03:24:07;;;;;;;39.45;28.58;;;14.10;99.90;;;;;;5070513;28;20349;-58
2022/10/18 03:26:33;;;;;;;46.80;28.33;;;14.00;99.90;;;;;;5066437;28;20037;-54
2022/10/18 03:28:58;;;;;;;96.88;29.75;;;14.10;99.90;;;;;;5061913;28;20033;-57
2022/10/18 03:31:24;;;;;;;59.92;28.58;;;14.10;99.90;;;;;;5059846;28;20501;-56
2022/10/18 03:33:50;;;;;;;85.55;28.33;;;14.00;99.90;;;;;;5070758;28;20413;-55
2022/10/18 03:36:15;;;;;;;49.72;28.13;;;14.00;99.90;;;;;;5069528;28;20071;-57
2022/10/18 03:38:41;;;;;;;45.67;27.92;;;14.00;99.90;;;;;;5053626;28;20044;-58
2022/10/18 03:41:07;;;;;;;153.55;31.63;;;14.10;99.90;;;;;;5076985;28;20033;-58
2022/10/18 03:43:33;;;;;;;112.22;30.40;;;14.00;99.90;;;;;;5055187;28;20033;-55
2022/10/18 03:45:59;;;;;;;173.70;31.33;;;14.00;99.90;;;;;;5051259;28;20127;-58
2022/10/18 03:48:24;;;;;;;217.05;31.85;;;14.00;99.90;;;;;;5062096;28;20406;-58
2022/10/18 03:50:50;;;;;;;467.83;50.35;;;14.00;99.90;;;;;;5060935;28;20040;-56
2022/10/18 03:53:15;;;;;;;231.27;33.67;;;14.00;99.90;;;;;;5050898;28;20482;-57
2022/10/18 03:55:41;;;;;;;180.52;30.90;;;14.00;99.90;;;;;;5050956;28;20069;-58
2022/10/18 03:58:07;;;;;;;102.50;28.10;;;14.00;99.90;;;;;;5051117;28;20063;-58
2022/10/18 04:00:32;;;;;;;55.95;26.75;;;13.90;99.90;;;;;;5052190;28;20032;-58
2022/10/18 04:02:58;;;;;;;141.00;29.98;;;13.90;99.90;;;;;;5083047;28;20516;-58
2022/10/18 04:05:26;;;;;;;75.63;27.15;;;13.90;99.90;;;;;;5050239;28;20447;-58
2022/10/18 04:07:52;;;;;;;55.85;23.08;;;14.00;99.90;;;;;;5050851;28;20041;-58
2022/10/18 04:10:17;;;;;;;217.97;31.03;;;13.90;99.90;;;;;;5050523;28;20037;-57
2022/10/18 04:12:43;;;;;;;70.82;22.98;;;13.90;99.90;;;;;;5051702;28;20279;-58
2022/10/18 04:15:09;;;;;;;304.55;29.75;;;13.90;99.90;;;;;;5050453;28;20041;-55
2022/10/18 04:17:34;;;;;;;385.42;42.85;;;13.90;99.90;;;;;;5056866;28;20025;-56
2022/10/18 04:20:00;;;;;;;192.27;26.88;;;13.80;99.90;;;;;;5070074;28;20035;-57
2022/10/18 04:22:25;;;;;;;140.65;25.98;;;13.80;99.90;;;;;;5063046;28;20104;-57
2022/10/18 04:24:55;;;;;;;73.53;23.13;;;13.80;99.90;;;;;;5064055;28;20178;-57
2022/10/18 04:27:21;;;;;;;76.35;23.73;;;13.80;99.90;;;;;;5055207;28;20063;-57
2022/10/18 04:29:47;;;;;;;100.03;24.98;;;13.70;99.90;;;;;;5068661;28;20086;-57
2022/10/18 04:32:12;;;;;;;84.17;23.77;;;13.70;99.90;;;;;;5054510;28;20029;-58
2022/10/18 04:34:38;;;;;;;122.05;27.13;;;13.80;99.90;;;;;;5058580;28;20097;-59
2022/10/18 04:37:03;;;;;;;164.55;31.65;;;13.80;99.90;;;;;;5069184;28;20116;-57
2022/10/18 04:39:29;;;;;;;173.43;28.60;;;13.70;99.90;;;;;;5054268;28;20371;-56
2022/10/18 04:41:55;;;;;;;46.08;21.92;;;13.70;99.90;;;;;;5059141;28;20482;-57
2022/10/18 04:44:20;;;;;;;44.00;20.90;;;13.70;99.90;;;;;;5067910;28;20353;-58
2022/10/18 04:46:46;;;;;;;175.45;31.10;;;13.70;99.90;;;;;;5059547;28;20037;-58
2022/10/18 04:49:11;;;;;;;44.42;23.63;;;13.70;99.90;;;;;;5062980;28;20045;-56
2022/10/18 04:51:37;;;;;;;56.15;24.17;;;13.70;99.90;;;;;;5061638;28;20414;-58
2022/10/18 04:54:02;;;;;;;43.58;23.08;;;13.70;99.90;;;;;;5063555;28;20068;-58
2022/10/18 04:56:28;;;;;;;111.47;25.10;;;13.70;99.90;;;;;;5063116;28;20037;-58
2022/10/18 04:58:53;;;;;;;89.13;26.35;;;13.70;99.90;;;;;;5064953;28;20460;-56
2022/10/18 05:01:19;;;;;;;95.63;26.83;;;13.70;99.90;;;;;;5051053;28;20037;-56
2022/10/18 05:03:44;;;;;;;69.00;24.13;;;13.70;99.90;;;;;;5050533;28;20306;-57
2022/10/18 05:06:10;;;;;;;50.90;23.93;;;13.70;99.90;;;;;;5054507;28;20784;-57
2022/10/18 05:08:36;;;;;;;69.05;23.42;;;13.70;99.90;;;;;;5066126;28;20323;-56
2022/10/18 05:11:03;;;;;;;40.35;23.65;;;13.60;99.90;;;;;;5061227;28;20055;-57
2022/10/18 05:13:29;;;;;;;67.57;25.23;;;13.70;99.90;;;;;;5051552;28;20409;-57
2022/10/18 05:15:54;;;;;;;127.65;28.23;;;13.60;99.90;;;;;;5056115;28;20041;-56
2022/10/18 05:18:20;;;;;;;143.80;26.60;;;13.60;99.90;;;;;;5068951;28;20056;-54
2022/10/18 05:20:46;;;;;;;102.50;24.70;;;13.60;99.90;;;;;;5052465;28;20036;-56
2022/10/18 05:23:11;;;;;;;77.47;23.42;;;13.60;99.90;;;;;;5049499;28;20041;-58
2022/10/18 05:25:41;;;;;;;106.97;23.40;;;13.60;99.90;;;;;;5052750;28;20505;-56
2022/10/18 05:28:07;;;;;;;57.15;22.48;;;13.60;99.90;;;;;;5058032;28;20283;-57
2022/10/18 05:30:32;;;;;;;71.60;23.25;;;13.60;99.90;;;;;;5050560;28;20619;-58
2022/10/18 05:32:58;;;;;;;95.85;22.02;;;13.60;99.90;;;;;;5066233;28;20063;-57
2022/10/18 05:35:24;;;;;;;76.55;22.25;;;13.60;99.90;;;;;;5064988;28;20045;-57
2022/10/18 05:37:49;;;;;;;62.25;20.70;;;13.60;99.90;;;;;;5058567;28;20116;-56
2022/10/18 05:40:15;;;;;;;116.57;22.50;;;13.60;99.90;;;;;;5050567;28;20036;-58
2022/10/18 05:42:40;;;;;;;224.90;24.95;;;13.60;99.90;;;;;;5057202;28;20041;-57
2022/10/18 05:45:07;;;;;;;135.63;22.60;;;13.60;99.90;;;;;;5059088;28;20272;-58
2022/10/18 05:47:32;;;;;;;162.50;21.88;;;13.50;99.90;;;;;;5058604;28;20037;-56
2022/10/18 05:49:58;;;;;;;155.67;21.00;;;13.50;99.90;;;;;;5069071;28;20036;-56
2022/10/18 05:52:23;;;;;;;122.27;17.67;;;13.50;99.90;;;;;;5057232;28;20279;-56
2022/10/18 05:54:49;;;;;;;85.07;18.30;;;13.40;99.90;;;;;;5060453;28;20344;-57
2022/10/18 05:57:14;;;;;;;131.70;20.40;;;13.40;99.90;;;;;;5053902;28;20106;-57
2022/10/18 05:59:40;;;;;;;153.52;20.38;;;13.40;99.90;;;;;;5050297;28;20045;-58
2022/10/18 06:02:05;;;;;;;130.93;19.85;;;13.40;99.90;;;;;;5048991;28;20033;-55
2022/10/18 06:04:31;;;;;;;50.58;16.58;;;13.40;99.90;;;;;;5048904;28;20460;-57
2022/10/18 06:06:56;;;;;;;107.63;17.45;;;13.30;99.90;;;;;;5051450;28;20048;-58
2022/10/18 06:09:22;;;;;;;65.85;18.70;;;13.30;99.90;;;;;;5065304;28;20504;-56
2022/10/18 06:11:47;;;;;;;67.47;17.02;;;13.30;99.90;;;;;;5072866;28;20367;-57
2022/10/18 06:14:13;;;;;;;51.03;17.42;;;13.30;99.90;;;;;;5071778;28;20045;-57
2022/10/18 06:16:38;;;;;;;58.88;16.75;;;13.30;99.90;;;;;;5064594;28;20059;-57
2022/10/18 06:19:04;;;;;;;106.33;20.33;;;13.30;99.90;;;;;;5047261;28;20245;-57
2022/10/18 06:21:30;;;;;;;69.10;16.80;;;13.20;99.90;;;;;;5052665;28;20716;-57
2022/10/18 06:23:57;;;;;;;80.87;17.87;;;13.20;99.90;;;;;;5052788;28;20040;-57
2022/10/18 06:26:23;;;;;;;74.38;16.63;;;13.20;99.90;;;;;;5053619;28;20307;-56
2022/10/18 06:28:49;;;;;;;25.65;14.80;;;13.10;99.90;;;;;;5054203;28;20129;-57
2022/10/18 06:31:15;;;;;;;39.72;17.30;;;13.10;99.90;;;;;;5053157;28;20494;-56
2022/10/18 06:33:40;;;;;;;43.95;15.27;;;13.10;99.90;;;;;;5050083;28;20044;-55
2022/10/18 06:36:08;;;;;;;31.08;15.02;;;13.10;99.90;;;;;;5055774;28;20118;-57
2022/10/18 06:38:35;;;;;;;18.23;13.02;;;13.00;99.90;;;;;;5061886;28;20043;-56
2022/10/18 06:41:00;;;;;;;43.35;14.73;;;13.00;99.90;;;;;;5052944;28;20526;-56
2022/10/18 06:43:26;;;;;;;26.65;13.88;;;13.00;99.90;;;;;;5059408;28;20028;-58
2022/10/18 06:45:53;;;;;;;118.38;17.33;;;13.00;99.90;;;;;;5053066;28;20040;-57
2022/10/18 06:48:19;;;;;;;40.05;13.98;;;12.90;99.90;;;;;;5052867;28;20040;-57
2022/10/18 06:50:59;;;;;;;26.73;14.02;;;12.90;99.90;;;;;;5052754;28;20049;-56
2022/10/18 06:53:26;;;;;;;52.85;14.77;;;12.90;99.90;;;;;;5051014;28;20871;-58
2022/10/18 06:55:57;;;;;;;59.40;14.90;;;12.90;99.90;;;;;;5057644;28;20033;-57
2022/10/18 06:58:22;;;;;;;53.35;12.73;;;12.90;99.90;;;;;;5061886;28;20214;-55
2022/10/18 07:00:48;;;;;;;124.97;16.43;;;12.90;99.90;;;;;;5053085;28;20438;-56
2022/10/18 07:03:13;;;;;;;119.93;15.77;;;12.90;99.90;;;;;;5050089;28;20041;-58
2022/10/18 07:05:39;;;;;;;111.03;15.80;;;12.80;99.90;;;;;;5061701;28;20291;-57
2022/10/18 07:08:05;;;;;;;100.10;15.00;;;12.80;99.90;;;;;;5060361;28;20283;-58
2022/10/18 07:10:30;;;;;;;21.27;11.57;;;12.80;99.90;;;;;;5062895;28;20052;-57
2022/10/18 07:12:56;;;;;;;120.50;15.80;;;12.90;99.90;;;;;;5049659;28;20041;-59
2022/10/18 07:15:22;;;;;;;145.33;15.00;;;12.90;99.90;;;;;;5053880;28;20320;-57
2022/10/18 07:17:49;;;;;;;62.20;12.77;;;12.90;99.90;;;;;;5056274;28;20297;-58
2022/10/18 07:20:14;;;;;;;46.72;12.27;;;12.90;99.90;;;;;;5059430;28;20044;-58
2022/10/18 07:22:40;;;;;;;78.68;12.57;;;12.90;99.90;;;;;;5058253;28;20033;-56
2022/10/18 07:25:06;;;;;;;115.82;14.02;;;12.90;99.90;;;;;;5052299;28;20262;-56
2022/10/18 07:27:40;;;;;;;92.45;12.55;;;12.90;99.90;;;;;;5052832;28;20115;-58
2022/10/18 07:30:08;;;;;;;77.03;13.00;;;12.90;99.90;;;;;;5045693;28;20373;-58
2022/10/18 07:32:33;;;;;;;79.18;12.70;;;13.00;99.90;;;;;;5052639;28;20542;-57
2022/10/18 07:34:59;;;;;;;89.37;13.47;;;13.00;99.90;;;;;;5056735;28;20048;-58
2022/10/18 07:37:24;;;;;;;72.97;13.13;;;13.00;99.90;;;;;;5051125;28;20282;-57
2022/10/18 07:39:50;;;;;;;84.07;12.77;;;13.10;99.90;;;;;;5052199;28;20120;-57
2022/10/18 07:42:15;;;;;;;20.50;8.27;;;13.20;99.90;;;;;;5057222;28;20290;-56
2022/10/18 07:44:41;;;;;;;90.38;12.07;;;13.20;99.90;;;;;;5048419;28;20394;-58
2022/10/18 07:47:07;;;;;;;93.35;11.77;;;13.20;99.90;;;;;;5049789;28;20040;-59
2022/10/18 07:49:32;;;;;;;15.40;8.70;;;13.20;99.90;;;;;;5061271;28;20094;-59
2022/10/18 07:51:58;;;;;;;159.73;13.87;;;13.20;99.90;;;;;;5051024;28;20386;-57
2022/10/18 07:54:23;;;;;;;156.15;14.73;;;13.20;99.90;;;;;;5045956;28;20136;-56
2022/10/18 07:56:49;;;;;;;80.67;11.97;;;13.20;99.90;;;;;;5048034;28;20120;-58
2022/10/18 07:59:14;;;;;;;41.97;10.97;;;13.20;99.90;;;;;;5051481;28;20379;-58
2022/10/18 08:01:40;;;;;;;80.32;14.50;;;13.20;99.90;;;;;;5051447;28;20095;-56
2022/10/18 08:04:05;;;;;;;72.40;12.45;;;13.20;99.90;;;;;;5064973;28;20115;-56
2022/10/18 08:06:31;;;;;;;106.30;14.02;;;13.30;99.90;;;;;;5057605;28;20062;-57
2022/10/18 08:08:56;;;;;;;37.50;11.98;;;13.30;99.90;;;;;;5062370;28;20520;-55
2022/10/18 08:11:23;;;;;;;101.60;15.77;;;13.30;99.90;;;;;;5054333;28;20029;-57
2022/10/18 08:13:50;;;;;;;153.57;16.85;;;13.30;99.90;;;;;;5048092;28;20303;-58
2022/10/18 08:16:21;;;;;;;130.05;18.42;;;13.30;99.90;;;;;;5048984;28;20410;-57
2022/10/18 08:18:47;;;;;;;106.70;12.95;;;13.40;99.90;;;;;;5053821;28;20044;-58
2022/10/18 08:21:15;;;;;;;123.35;16.40;;;13.40;99.90;;;;;;5058433;28;20032;-55
2022/10/18 08:23:41;;;;;;;160.85;18.23;;;13.50;99.90;;;;;;5046057;28;20048;-55
2022/10/18 08:26:09;;;;;;;133.38;15.93;;;13.40;99.90;;;;;;5052775;28;20720;-55
2022/10/18 08:28:35;;;;;;;121.95;16.73;;;13.40;99.90;;;;;;5050761;28;20446;-56
2022/10/18 08:31:10;;;;;;;106.72;17.33;;;13.40;99.90;;;;;;5045233;28;20044;-55
2022/10/18 08:33:38;;;;;;;122.03;18.10;;;13.40;99.90;;;;;;5048969;28;20118;-55
2022/10/18 08:36:05;;;;;;;146.02;17.23;;;13.30;99.90;;;;;;5056694;28;20028;-55
2022/10/18 08:38:33;;;;;;;64.20;14.85;;;13.30;99.90;;;;;;5048607;28;20193;-57
2022/10/18 08:41:12;;;;;;;130.15;18.98;;;13.30;99.90;;;;;;5051738;28;20131;-57
2022/10/18 08:43:45;;;;;;;83.03;15.10;;;13.40;99.90;;;;;;5063840;28;20060;-58
2022/10/18 08:46:12;;;;;;;54.30;17.38;;;13.40;99.90;;;;;;5058849;28;20525;-56
2022/10/18 08:48:44;;;;;;;35.88;14.95;;;13.50;99.90;;;;;;5051432;28;20028;-57
2022/10/18 08:51:44;;;;;;;25.05;14.13;;;13.50;99.90;;;;;;5059300;28;20056;-59
2022/10/18 08:54:15;;;;;;;39.70;14.23;;;13.60;99.90;;;;;;5051039;28;20086;-57
2022/10/18 08:56:46;;;;;;;21.83;12.93;;;13.60;99.90;;;;;;5049837;28;20078;-57
2022/10/18 08:59:12;;;;;;;44.65;14.20;;;13.70;99.90;;;;;;5057604;28;20033;-57
2022/10/18 09:02:22;;;;;;;16.02;11.55;;;13.70;99.90;;;;;;5056349;28;20381;-58
2022/10/18 09:05:00;;;;;;;19.98;12.07;;;13.80;99.90;;;;;;5017212;28;20046;-56
2022/10/18 09:07:45;;;;;;;23.30;11.85;;;13.80;99.90;;;;;;5021651;28;20041;-56
2022/10/18 09:10:19;;;;;;;17.67;13.73;;;13.80;99.90;;;;;;5038163;28;20049;-56
2022/10/18 09:13:16;;;;;;;18.77;13.65;;;13.80;99.90;;;;;;5045103;28;20033;-57
2022/10/18 09:16:00;;;;;;;18.27;14.00;;;13.90;99.90;;;;;;5044682;28;20120;-55
2022/10/18 09:18:42;;;;;;;18.83;15.02;;;13.90;99.90;;;;;;5062432;28;20092;-57
2022/10/18 09:21:22;;;;;;;16.60;13.63;;;13.90;99.90;;;;;;5059715;28;20041;-57
2022/10/18 09:24:24;;;;;;;22.80;14.38;;;14.00;99.90;;;;;;5046358;28;20040;-57
2022/10/18 09:26:58;;;;;;;15.88;11.73;;;14.00;99.90;;;;;;5043140;28;20064;-58
2022/10/18 09:29:57;;;;;;;17.92;11.73;;;14.10;99.90;;;;;;5063503;28;20120;-57
2022/10/18 09:32:50;;;;;;;11.02;9.73;;;14.30;99.90;;;;;;5046820;28;20498;-54
2022/10/18 09:35:23;;;;;;;15.18;9.65;;;14.40;99.90;;;;;;5051709;28;20045;-57
2022/10/18 09:37:54;;;;;;;14.82;9.45;;;14.50;99.90;;;;;;5055418;28;20068;-57
2022/10/18 09:40:32;;;;;;;15.90;10.35;;;14.50;99.90;;;;;;5049228;28;20112;-57
2022/10/18 09:43:14;;;;;;;12.80;9.32;;;14.60;99.90;;;;;;5049476;28;20483;-56
2022/10/18 09:45:43;;;;;;;9.82;8.77;;;14.70;99.90;;;;;;5064775;28;20513;-58
2022/10/18 09:48:27;;;;;;;11.40;8.55;;;14.80;99.90;;;;;;5050032;28;20041;-54
2022/10/18 09:51:10;;;;;;;10.05;8.27;;;14.70;99.90;;;;;;5063880;28;20074;-58
2022/10/18 09:53:53;;;;;;;11.45;8.48;;;14.70;99.90;;;;;;5047774;28;20037;-58
2022/10/18 09:56:30;;;;;;;13.55;8.80;;;14.80;99.90;;;;;;5065031;28;20040;-58
2022/10/18 09:58:56;;;;;;;14.48;9.07;;;14.80;99.90;;;;;;5054609;28;20125;-57
2022/10/18 10:01:25;;;;;;;15.02;8.85;;;14.90;99.90;;;;;;5058091;28;20485;-58
2022/10/18 10:03:51;;;;;;;13.73;9.15;;;15.00;99.90;;;;;;5056689;28;20374;-59
2022/10/18 10:06:22;;;;;;;;;;;15.20;99.90;;;;;;5056616;28;20036;-59
2022/10/18 10:08:52;;;;;;;9.60;6.88;;;15.50;99.90;;;;;;5053091;28;19916;-59
2022/10/18 10:11:33;;;;;;;10.93;7.20;;;15.70;99.90;;;;;;5053572;28;20028;-58
2022/10/18 10:14:13;;;;;;;11.32;6.93;;;15.90;99.90;;;;;;5054927;28;20272;-58
2022/10/18 10:16:55;;;;;;;13.50;7.22;;;16.00;99.90;;;;;;5058840;28;20049;-58
2022/10/18 10:19:26;;;;;;;14.05;6.95;;;16.10;99.90;;;;;;5060024;28;20117;-58
2022/10/18 10:21:57;;;;;;;9.95;6.03;;;16.30;99.90;;;;;;5055410;28;20033;-58
2022/10/18 10:24:27;;;;;;;11.65;7.38;;;16.40;99.90;;;;;;5051331;28;20047;-58
2022/10/18 10:27:02;;;;;;;12.75;7.43;;;16.60;99.90;;;;;;5057543;28;20052;-58
2022/10/18 10:29:45;;;;;;;10.63;6.13;;;16.70;99.90;;;;;;5055210;28;20037;-57
2022/10/18 10:32:16;;;;;;;8.98;6.20;;;16.90;99.90;;;;;;5058207;28;20033;-57
2022/10/18 10:34:42;;;;;;;10.85;6.50;;;17.00;99.90;;;;;;5056822;28;20094;-57
2022/10/18 10:37:29;;;;;;;14.05;6.90;;;17.10;99.90;;;;;;5058131;28;20040;-58
2022/10/18 10:40:13;;;;;;;10.73;5.93;;;17.10;99.90;;;;;;5054379;28;20193;-58
2022/10/18 10:42:56;;;;;;;16.90;6.53;;;17.20;99.90;;;;;;5056524;28;20118;-57
2022/10/18 10:45:24;;;;;;;9.15;5.32;;;17.40;99.90;;;;;;5054708;28;20041;-58
2022/10/18 10:47:52;;;;;;;12.88;5.22;;;17.40;99.90;;;;;;5058455;28;20119;-58
2022/10/18 10:50:26;;;;;;;10.68;5.57;;;17.50;99.90;;;;;;5054311;28;20136;-58
2022/10/18 10:52:52;;;;;;;8.15;4.70;;;17.60;99.90;;;;;;5057074;28;20040;-57
2022/10/18 10:55:21;;;;;;;;;;;17.80;99.90;;;;;;5061349;28;20124;-56
2022/10/18 10:57:49;;;;;;;6.80;4.10;;;17.90;99.90;;;;;;5055718;28;20407;-58
2022/10/18 11:00:42;;;;;;;15.32;5.45;;;18.00;99.90;;;;;;5053931;28;20056;-59
2022/10/18 11:03:22;;;;;;;11.02;5.25;;;18.10;99.90;;;;;;5052213;28;20096;-58
2022/10/18 11:05:59;;;;;;;12.05;5.88;;;18.30;99.90;;;;;;5051251;28;20049;-58
2022/10/18 11:08:30;;;;;;;11.98;4.22;;;18.30;99.90;;;;;;5058711;28;20047;-59
2022/10/18 11:11:20;;;;;;;11.02;3.55;;;18.30;99.90;;;;;;5054694;28;20067;-57
2022/10/18 11:14:12;;;;;;;11.82;2.80;;;18.30;99.90;;;;;;5053182;28;20044;-59
2022/10/18 11:16:50;;;;;;;8.60;2.20;;;18.40;99.90;;;;;;5045612;28;20056;-58
2022/10/18 11:19:38;;;;;;;6.93;1.42;;;18.60;99.90;;;;;;5057548;28;20032;-58
2022/10/18 11:22:10;;;;;;;7.68;1.92;;;18.60;99.90;;;;;;5054130;28;20055;-56
2022/10/18 11:24:36;;;;;;;6.93;2.20;;;18.60;99.90;;;;;;5056480;28;20111;-57
2022/10/18 11:27:28;;;;;;;11.48;2.58;;;18.70;99.90;;;;;;5054876;28;20128;-59
2022/10/18 11:30:12;;;;;;;9.18;2.22;;;18.90;99.90;;;;;;5052306;28;20044;-57
2022/10/18 11:32:57;;;;;;;12.55;2.70;;;19.00;99.90;;;;;;5055211;28;20128;-57
2022/10/18 11:35:44;;;;;;;9.70;2.00;;;19.20;99.90;;;;;;5055876;28;20047;-57
2022/10/18 11:38:22;;;;;;;7.20;2.35;;;19.40;99.90;;;;;;5054172;28;20041;-59
2022/10/18 11:40:56;;;;;;;6.47;1.88;;;19.60;99.90;;;;;;5054945;28;20044;-58
2022/10/18 11:43:33;;;;;;;6.50;1.45;;;19.70;99.90;;;;;;5055613;28;20028;-58
2022/10/18 11:46:20;;;;;;;7.60;1.20;;;19.70;99.90;;;;;;5055834;28;20565;-58
2022/10/18 11:49:09;;;;;;;6.55;1.00;;;19.50;99.90;;;;;;5052916;28;20615;-58
2022/10/18 11:51:54;;;;;;;4.88;1.20;;;19.50;99.90;;;;;;5051648;28;20037;-56
2022/10/18 11:54:39;;;;;;;4.18;0.47;;;19.40;99.90;;;;;;5056647;28;20044;-57
2022/10/18 11:57:30;;;;;;;7.43;0.80;;;19.40;99.90;;;;;;5052728;28;20117;-57
2022/10/18 12:00:01;;;;;;;9.13;1.00;;;19.30;99.90;;;;;;5053908;28;20060;-58
2022/10/18 12:02:50;;;;;;;10.00;1.13;;;19.40;99.90;;;;;;5052234;28;20557;-58
2022/10/18 12:05:17;;;;;;;5.03;1.15;;;19.30;99.90;;;;;;5049894;28;20041;-58
2022/10/18 12:08:07;;;;;;;8.32;0.95;;;19.40;99.90;;;;;;5057800;28;20118;-57
2022/10/18 12:10:34;;;;;;;6.80;0.50;;;19.50;99.90;;;;;;5053490;28;20040;-58
2022/10/18 12:13:05;;;;;;;5.82;0.45;;;19.60;99.90;;;;;;5053782;28;20699;-56
2022/10/18 12:15:35;;;;;;;9.55;1.55;;;19.70;99.90;;;;;;5057448;28;20037;-57
2022/10/18 12:18:05;;;;;;;10.18;0.88;;;19.70;99.90;;;;;;5055126;28;20442;-57
2022/10/18 12:20:44;;;;;;;6.97;0.98;;;19.70;99.90;;;;;;5056782;28;20628;-58
2022/10/18 12:23:27;;;;;;;4.30;0.70;;;19.60;99.90;;;;;;5051554;28;20040;-57
2022/10/18 12:26:01;;;;;;;9.50;0.70;;;19.50;99.90;;;;;;5057955;28;20032;-57
2022/10/18 12:28:45;;;;;;;7.05;0.88;;;19.50;99.90;;;;;;5053438;28;20806;-58
2022/10/18 12:31:20;;;;;;;7.47;0.60;;;19.30;99.90;;;;;;5052485;28;20032;-59
2022/10/18 12:33:52;;;;;;;10.40;0.73;;;19.30;99.90;;;;;;5046543;28;20071;-58
2022/10/18 12:36:27;;;;;;;7.78;0.63;;;19.50;99.90;;;;;;5052732;28;20090;-58
2022/10/18 12:39:00;;;;;;;10.90;0.73;;;19.60;99.90;;;;;;5053192;28;20065;-57
2022/10/18 12:41:28;;;;;;;11.95;1.08;;;19.80;99.90;;;;;;5051313;28;20032;-58
2022/10/18 12:43:58;;;;;;;6.18;0.60;;;19.80;99.90;;;;;;5056085;28;20020;-58
2022/10/18 12:46:23;;;;;;;7.38;0.75;;;19.90;99.90;;;;;;5051350;28;20064;-59